CheckWX is a tool to help pilots better visualize weather data.  It is not intended as a substitute for an official pre-flight weather briefing.

22:51:31 UTC

HESN METAR
Aswan International Airport
Aswan, Egypt
Current

52 mins ago

HESN 152200Z 33006KT CAVOK 33/04 Q1008 NOSIG
Observed
Jul-15 @ 22:00 UTC
Wind
  • 330° at 6 KTS
Visibility
10,000+ meters
Flight Rules
VFR
Cloud Levels
  • Clear skies
Temperature
33°C / 91°F
Dewpoint
C / 39°F
Humidity
16%
Altimeter
29.76" Hg
Pressure
1007.92 hPa
Previous

2 hours ago

HESN 152100Z 32003KT CAVOK 33/03 Q1008 NOSIG
Observed
Jul-15 @ 21:00 UTC
Wind
  • 320° at 3 KTS
Visibility
10,000+ meters
Flight Rules
VFR
Cloud Levels
  • Clear skies
Temperature
33°C / 91°F
Dewpoint
C / 37°F
Humidity
15%
Altimeter
29.76" Hg
Pressure
1007.92 hPa
Previous

3 hours ago

HESN 152000Z 01005KT CAVOK 35/07 Q1008 NOSIG
Observed
Jul-15 @ 20:00 UTC
Wind
  • 010° at 5 KTS
Visibility
10,000+ meters
Flight Rules
VFR
Cloud Levels
  • Clear skies
Temperature
35°C / 95°F
Dewpoint
C / 45°F
Humidity
18%
Altimeter
29.76" Hg
Pressure
1007.92 hPa